createdAt,value
2023-05-15T00:08:41.906Z,15.30
2023-05-15T00:18:45.449Z,15.30
2023-05-15T00:28:47.616Z,15.30
2023-05-15T00:38:50.951Z,15.20
2023-05-15T00:48:53.607Z,15.10
2023-05-15T00:58:57.964Z,15.00
2023-05-15T01:09:01.033Z,15.00
2023-05-15T01:19:05.038Z,15.00
2023-05-15T01:29:14.740Z,14.80
2023-05-15T01:39:23.262Z,14.80
2023-05-15T01:49:28.118Z,14.80
2023-05-15T01:59:30.585Z,14.70
2023-05-15T02:09:34.316Z,14.60
2023-05-15T02:19:36.274Z,14.50
2023-05-15T02:29:49.779Z,14.40
2023-05-15T02:39:52.383Z,14.20
2023-05-15T02:49:56.546Z,14.10
2023-05-15T02:59:58.655Z,14.10
2023-05-15T03:10:01.971Z,14.10
2023-05-15T03:20:04.508Z,14.00
2023-05-15T03:30:09.337Z,14.00
2023-05-15T03:40:12.575Z,13.80
2023-05-15T03:50:16.159Z,13.70
2023-05-15T04:00:19.219Z,13.60
2023-05-15T04:10:22.785Z,13.50
2023-05-15T04:20:25.656Z,13.50
2023-05-15T04:30:29.125Z,13.40
2023-05-15T04:40:31.889Z,13.30
2023-05-15T04:50:35.201Z,13.10
2023-05-15T05:00:37.255Z,12.90
2023-05-15T05:10:40.642Z,12.70
2023-05-15T05:20:42.559Z,12.50
2023-05-15T05:30:46.863Z,12.40
2023-05-15T05:40:48.796Z,12.10
2023-05-15T05:50:52.163Z,12.00
2023-05-15T06:00:54.616Z,12.00
2023-05-15T06:10:57.962Z,12.10
2023-05-15T06:20:59.905Z,12.20
2023-05-15T06:31:03.416Z,12.10
2023-05-15T06:41:05.446Z,12.20
2023-05-15T06:51:08.815Z,12.20
2023-05-15T07:01:10.814Z,12.20
2023-05-15T07:11:14.218Z,12.30
2023-05-15T07:21:16.150Z,12.20
2023-05-15T07:31:20.451Z,12.60
2023-05-15T07:41:22.379Z,13.00
2023-05-15T07:51:25.713Z,12.60
2023-05-15T08:01:28.323Z,12.60
2023-05-15T08:11:32.868Z,13.30
2023-05-15T08:21:34.900Z,14.40
2023-05-15T08:31:38.279Z,15.10
2023-05-15T08:41:46.933Z,16.60
2023-05-15T08:51:50.436Z,16.50
2023-05-15T09:01:53.791Z,16.80
2023-05-15T09:11:59.434Z,17.80
2023-05-15T09:22:15.204Z,17.60
2023-05-15T09:32:19.040Z,17.60
2023-05-15T09:42:21.344Z,18.20
2023-05-15T09:52:25.025Z,17.90
2023-05-15T10:02:28.416Z,18.90
2023-05-15T10:12:32.283Z,18.90
2023-05-15T10:22:38.082Z,19.20
2023-05-15T10:32:42.235Z,20.10
2023-05-15T10:42:46.196Z,19.70
2023-05-15T10:52:52.139Z,18.90
2023-05-15T11:02:54.452Z,19.30
2023-05-15T11:12:58.831Z,19.10
2023-05-15T11:23:00.915Z,17.90
2023-05-15T11:33:05.944Z,18.20
2023-05-15T11:43:17.302Z,18.20
2023-05-15T11:53:21.751Z,17.60
2023-05-15T12:03:25.337Z,18.00
2023-05-15T12:13:29.666Z,17.10
2023-05-15T12:23:32.996Z,18.30
2023-05-15T12:33:36.396Z,17.10
2023-05-15T12:43:38.622Z,17.20
2023-05-15T12:53:42.454Z,16.30
2023-05-15T13:03:44.726Z,17.20
2023-05-15T13:13:49.253Z,17.50
2023-05-15T13:23:51.764Z,16.40
2023-05-15T13:33:55.186Z,16.50
2023-05-15T13:43:57.138Z,16.50
2023-05-15T13:54:27.398Z,17.20
2023-05-15T14:04:29.372Z,17.30
2023-05-15T14:14:32.721Z,17.30
2023-05-15T14:24:34.769Z,17.50
2023-05-15T14:34:38.153Z,17.40
2023-05-15T14:44:40.108Z,17.00
2023-05-15T14:54:43.779Z,17.10
2023-05-15T15:04:46.599Z,17.60
2023-05-15T15:14:49.894Z,17.40
2023-05-15T15:24:51.845Z,17.30
2023-05-15T15:34:56.603Z,17.40
2023-05-15T15:44:59.253Z,17.10
2023-05-15T15:55:02.648Z,16.60
2023-05-15T16:05:05.080Z,16.50
2023-05-15T16:15:21.824Z,16.20
2023-05-15T16:25:25.672Z,16.20
2023-05-15T16:35:28.990Z,17.00
2023-05-15T16:45:31.159Z,16.50
2023-05-15T16:55:34.759Z,15.70
2023-05-15T17:05:36.871Z,15.80
2023-05-15T17:15:40.225Z,16.30
2023-05-15T17:25:42.240Z,16.40
2023-05-15T17:35:45.980Z,16.20
2023-05-15T17:45:47.990Z,16.00
2023-05-15T17:55:51.406Z,15.90
2023-05-15T18:05:53.388Z,15.50
2023-05-15T18:15:56.774Z,15.30
2023-05-15T18:26:05.961Z,15.00
2023-05-15T18:36:09.260Z,14.90
2023-05-15T18:46:11.214Z,14.70
2023-05-15T18:56:14.589Z,14.50
2023-05-15T19:06:16.560Z,14.30
2023-05-15T19:16:19.891Z,14.10
2023-05-15T19:26:21.966Z,13.90
2023-05-15T19:36:25.426Z,13.70
2023-05-15T19:46:27.480Z,13.40
2023-05-15T19:56:30.922Z,13.30
2023-05-15T20:06:32.855Z,13.00
2023-05-15T20:16:36.314Z,12.80
2023-05-15T20:26:38.430Z,12.70
2023-05-15T20:36:53.085Z,12.30
2023-05-15T20:46:55.212Z,12.10
2023-05-15T20:56:58.547Z,11.80
2023-05-15T21:07:00.557Z,11.60
2023-05-15T21:17:03.975Z,11.30
2023-05-15T21:27:06.342Z,11.10
2023-05-15T21:37:09.662Z,10.80
2023-05-15T21:47:11.589Z,10.50
2023-05-15T21:57:14.916Z,10.30
2023-05-15T22:07:16.863Z,10.10
2023-05-15T22:17:20.200Z,10.00
2023-05-15T22:27:22.171Z,9.70
2023-05-15T22:37:25.578Z,9.50
2023-05-15T22:47:27.665Z,9.30
2023-05-15T22:57:30.975Z,9.10
2023-05-15T23:07:32.890Z,8.90
2023-05-15T23:17:36.467Z,8.70
2023-05-15T23:27:38.484Z,8.60
2023-05-15T23:37:41.818Z,8.50
2023-05-15T23:47:43.832Z,8.30
2023-05-15T23:57:47.168Z,8.30
